createdAt,value
2017-03-19T00:00:11.421Z,0
2017-03-19T00:00:51.893Z,0
2017-03-19T00:01:32.412Z,0
2017-03-19T00:02:12.855Z,0
2017-03-19T00:02:53.361Z,0
2017-03-19T00:03:33.824Z,0
2017-03-19T00:04:14.316Z,0
2017-03-19T00:04:54.792Z,0
2017-03-19T00:05:35.291Z,0
2017-03-19T00:06:15.776Z,0
2017-03-19T00:06:56.283Z,0
2017-03-19T00:07:36.813Z,0
2017-03-19T00:08:17.285Z,0
2017-03-19T00:08:57.808Z,0
2017-03-19T00:09:38.309Z,0
2017-03-19T00:10:18.807Z,0
2017-03-19T00:10:59.263Z,0
2017-03-19T00:11:39.768Z,0
2017-03-19T00:12:20.425Z,0
2017-03-19T00:13:00.796Z,0
2017-03-19T00:13:41.271Z,0
2017-03-19T00:14:21.783Z,0
2017-03-19T00:15:02.327Z,0
2017-03-19T00:15:42.821Z,0
2017-03-19T00:16:23.297Z,0
2017-03-19T00:17:03.772Z,0
2017-03-19T00:17:44.232Z,0
2017-03-19T00:18:24.711Z,0
2017-03-19T00:19:05.196Z,0
2017-03-19T00:19:45.659Z,0
2017-03-19T00:20:26.134Z,0
2017-03-19T00:21:06.597Z,0
2017-03-19T00:21:47.125Z,0
2017-03-19T00:22:27.640Z,0
2017-03-19T00:23:08.116Z,0
2017-03-19T00:23:48.659Z,0
2017-03-19T00:24:29.148Z,0
2017-03-19T00:25:09.625Z,0
2017-03-19T00:25:50.129Z,0
2017-03-19T00:26:30.644Z,0
2017-03-19T00:27:11.104Z,0
2017-03-19T00:27:51.621Z,0
2017-03-19T00:28:32.100Z,0
2017-03-19T00:29:12.562Z,0
2017-03-19T00:29:53.104Z,0
2017-03-19T00:30:33.589Z,0
2017-03-19T00:31:14.049Z,0
2017-03-19T00:31:54.508Z,0
2017-03-19T00:32:35.026Z,0
2017-03-19T00:33:15.492Z,0
2017-03-19T00:33:55.985Z,0
2017-03-19T00:34:36.470Z,0
2017-03-19T00:35:16.982Z,0
2017-03-19T00:35:57.455Z,0
2017-03-19T00:36:37.940Z,0
2017-03-19T00:37:18.439Z,0
2017-03-19T00:37:58.910Z,0
2017-03-19T00:38:39.433Z,0
2017-03-19T00:39:19.950Z,0
2017-03-19T00:40:00.434Z,0
2017-03-19T00:40:40.884Z,0
2017-03-19T00:41:21.357Z,0
2017-03-19T00:42:01.824Z,0
2017-03-19T00:42:42.349Z,0
2017-03-19T00:43:22.791Z,0
2017-03-19T00:44:03.260Z,0
2017-03-19T00:44:43.769Z,0
2017-03-19T00:45:24.249Z,0
2017-03-19T00:46:04.734Z,0
2017-03-19T00:46:45.214Z,0
2017-03-19T00:47:25.683Z,0
2017-03-19T00:48:06.164Z,0
2017-03-19T00:48:46.622Z,0
2017-03-19T00:49:27.127Z,0
2017-03-19T00:50:07.583Z,0
2017-03-19T00:50:48.121Z,0
2017-03-19T00:51:28.611Z,0
2017-03-19T00:52:09.122Z,0
2017-03-19T00:52:49.601Z,0
2017-03-19T00:53:30.106Z,0
2017-03-19T00:54:10.583Z,0
2017-03-19T00:54:51.096Z,0
2017-03-19T00:55:31.534Z,0
2017-03-19T00:56:12.002Z,0
2017-03-19T00:56:52.489Z,0
2017-03-19T00:57:32.985Z,0
2017-03-19T00:58:13.429Z,0
2017-03-19T00:58:53.945Z,0
2017-03-19T00:59:34.420Z,0
2017-03-19T01:00:14.953Z,0
2017-03-19T01:00:55.457Z,0
2017-03-19T01:01:35.951Z,0
2017-03-19T01:02:16.484Z,0
2017-03-19T01:02:56.994Z,0
2017-03-19T01:03:37.493Z,0
2017-03-19T01:04:17.954Z,0
2017-03-19T01:04:58.490Z,0
2017-03-19T01:05:38.991Z,0
2017-03-19T01:06:19.437Z,0
2017-03-19T01:06:59.931Z,0
2017-03-19T01:07:40.435Z,0
2017-03-19T01:08:20.889Z,0
2017-03-19T01:09:01.386Z,0
2017-03-19T01:09:41.892Z,0
2017-03-19T01:10:22.405Z,0
2017-03-19T01:11:02.843Z,0
2017-03-19T01:11:43.467Z,0
2017-03-19T01:12:23.900Z,0
2017-03-19T01:13:04.391Z,0
2017-03-19T01:13:44.899Z,0
2017-03-19T01:14:25.384Z,0
2017-03-19T01:15:05.819Z,0
2017-03-19T01:15:46.303Z,0
2017-03-19T01:16:26.798Z,0
2017-03-19T01:17:07.328Z,0
2017-03-19T01:17:47.771Z,0
2017-03-19T01:18:28.369Z,0
2017-03-19T01:19:08.898Z,0
2017-03-19T01:19:49.364Z,0
2017-03-19T01:20:29.819Z,0
2017-03-19T01:21:10.321Z,0
2017-03-19T01:21:50.789Z,0
2017-03-19T01:22:31.269Z,0
2017-03-19T01:23:11.774Z,0
2017-03-19T01:23:52.280Z,0
2017-03-19T01:24:32.776Z,0
2017-03-19T01:25:13.246Z,0
2017-03-19T01:25:53.797Z,0
2017-03-19T01:26:34.233Z,0
2017-03-19T01:27:14.741Z,0
2017-03-19T01:27:55.224Z,0
2017-03-19T01:28:35.704Z,0
2017-03-19T01:29:16.203Z,0
2017-03-19T01:29:56.712Z,0
2017-03-19T01:30:37.215Z,0
2017-03-19T01:31:17.704Z,0
2017-03-19T01:31:58.215Z,0
2017-03-19T01:32:38.696Z,0
2017-03-19T01:33:19.159Z,0
2017-03-19T01:33:59.622Z,0
2017-03-19T01:34:40.142Z,0
2017-03-19T01:35:20.637Z,0
2017-03-19T01:36:01.138Z,0
2017-03-19T01:36:41.646Z,0
2017-03-19T01:37:22.122Z,0
2017-03-19T01:38:02.613Z,0
2017-03-19T01:38:43.134Z,0
2017-03-19T01:39:26.289Z,0
2017-03-19T01:40:06.771Z,0
2017-03-19T01:40:47.234Z,0
2017-03-19T01:41:27.735Z,0
2017-03-19T01:42:08.233Z,0
2017-03-19T01:42:48.733Z,0
2017-03-19T01:43:29.198Z,0
2017-03-19T01:44:09.690Z,0
2017-03-19T01:44:50.198Z,0
2017-03-19T01:45:30.685Z,0
2017-03-19T01:46:11.140Z,0
2017-03-19T01:46:51.611Z,0
2017-03-19T01:47:32.125Z,0
2017-03-19T01:48:12.644Z,0
2017-03-19T01:48:53.135Z,0
2017-03-19T01:49:33.655Z,0
2017-03-19T01:50:14.153Z,0
2017-03-19T01:50:54.656Z,0
2017-03-19T01:51:35.135Z,0
2017-03-19T01:52:15.565Z,0
2017-03-19T01:52:56.082Z,0
2017-03-19T01:53:36.535Z,0
2017-03-19T01:54:17.049Z,0
2017-03-19T01:54:57.530Z,0
2017-03-19T01:55:37.998Z,0
2017-03-19T01:56:18.550Z,0
2017-03-19T01:56:59.012Z,0
2017-03-19T01:57:39.477Z,0
2017-03-19T01:58:19.966Z,0
2017-03-19T01:59:00.456Z,0
2017-03-19T01:59:40.930Z,0
2017-03-19T02:00:21.395Z,0
2017-03-19T02:01:01.912Z,0
2017-03-19T02:01:42.362Z,0
2017-03-19T02:02:22.925Z,0
2017-03-19T02:03:03.427Z,0
2017-03-19T02:03:43.916Z,0
2017-03-19T02:04:24.406Z,0
2017-03-19T02:05:04.906Z,0
2017-03-19T02:05:45.370Z,0
2017-03-19T02:06:25.876Z,0
2017-03-19T02:07:06.382Z,0
2017-03-19T02:07:46.834Z,0
2017-03-19T02:08:27.357Z,0
2017-03-19T02:09:07.819Z,0
2017-03-19T02:09:48.296Z,0
2017-03-19T02:10:28.775Z,0
2017-03-19T02:11:09.230Z,0
2017-03-19T02:11:49.713Z,0
2017-03-19T02:12:30.194Z,0
2017-03-19T02:13:10.722Z,0
2017-03-19T02:13:51.181Z,0
2017-03-19T02:14:31.708Z,0
2017-03-19T02:15:12.213Z,0
2017-03-19T02:15:52.699Z,0
2017-03-19T02:16:33.157Z,0
2017-03-19T02:17:13.649Z,0
2017-03-19T02:17:54.119Z,0
2017-03-19T02:18:34.595Z,0
2017-03-19T02:19:18.000Z,0
2017-03-19T02:19:58.524Z,0
2017-03-19T02:20:39.041Z,0
2017-03-19T02:21:19.563Z,0
2017-03-19T02:22:00.052Z,0
2017-03-19T02:22:40.522Z,0
2017-03-19T02:23:21.006Z,0
2017-03-19T02:24:01.479Z,0
2017-03-19T02:24:41.964Z,0
2017-03-19T02:25:22.449Z,0
2017-03-19T02:26:02.949Z,0
2017-03-19T02:26:43.456Z,0
2017-03-19T02:27:23.932Z,0
2017-03-19T02:28:04.426Z,0
2017-03-19T02:28:44.980Z,0
2017-03-19T02:29:25.435Z,0
2017-03-19T02:30:05.947Z,0
2017-03-19T02:30:46.414Z,0
2017-03-19T02:31:26.923Z,0
2017-03-19T02:34:01.772Z,0
2017-03-19T02:34:42.005Z,0
2017-03-19T02:35:22.509Z,0
2017-03-19T02:36:02.982Z,0
2017-03-19T02:36:43.481Z,0
2017-03-19T02:37:23.974Z,0
2017-03-19T02:38:04.464Z,0
2017-03-19T02:38:44.926Z,0
2017-03-19T02:39:25.436Z,0
2017-03-19T02:40:05.968Z,0
2017-03-19T02:40:46.463Z,0
2017-03-19T02:41:26.974Z,0
2017-03-19T02:42:07.437Z,0
2017-03-19T02:42:47.895Z,0
2017-03-19T02:43:28.439Z,0
2017-03-19T02:44:08.903Z,0
2017-03-19T02:44:49.382Z,0
2017-03-19T02:45:29.882Z,0
2017-03-19T02:46:10.364Z,0
2017-03-19T02:46:50.836Z,0
2017-03-19T02:47:31.352Z,0
2017-03-19T02:48:11.795Z,0
2017-03-19T02:48:52.305Z,0
2017-03-19T02:49:32.761Z,0
2017-03-19T02:50:13.267Z,0
2017-03-19T02:50:53.735Z,0
2017-03-19T02:51:34.212Z,0
2017-03-19T02:52:14.783Z,0
2017-03-19T02:52:55.302Z,0
2017-03-19T02:53:35.760Z,0
2017-03-19T02:54:16.243Z,0
2017-03-19T02:54:56.754Z,0
2017-03-19T02:55:37.252Z,0
2017-03-19T02:56:17.740Z,0
2017-03-19T02:56:58.200Z,0
2017-03-19T02:57:38.705Z,0
2017-03-19T02:58:19.182Z,0
2017-03-19T02:58:59.650Z,0
2017-03-19T02:59:40.139Z,0
2017-03-19T03:00:20.636Z,0
2017-03-19T03:01:01.135Z,0
2017-03-19T03:01:41.645Z,0
2017-03-19T03:02:22.102Z,0
2017-03-19T03:03:02.585Z,0
2017-03-19T03:03:43.076Z,0
2017-03-19T03:04:23.555Z,0
2017-03-19T03:05:04.015Z,0
2017-03-19T03:05:44.516Z,0
2017-03-19T03:06:24.978Z,0
2017-03-19T03:07:05.450Z,0
2017-03-19T03:07:45.912Z,0
2017-03-19T03:08:26.399Z,0
2017-03-19T03:09:06.907Z,0
2017-03-19T03:09:47.348Z,0
2017-03-19T03:10:27.839Z,0
2017-03-19T03:11:08.339Z,0
2017-03-19T03:11:48.875Z,0
2017-03-19T03:12:29.368Z,0
2017-03-19T03:13:09.854Z,0
2017-03-19T03:13:50.368Z,0
2017-03-19T03:14:30.889Z,0
2017-03-19T03:15:11.363Z,0
2017-03-19T03:15:51.880Z,0
2017-03-19T03:16:32.328Z,0
2017-03-19T03:17:12.849Z,0
2017-03-19T03:17:53.364Z,0
2017-03-19T03:18:33.879Z,0
2017-03-19T03:19:14.370Z,0
2017-03-19T03:19:54.905Z,0
2017-03-19T03:20:35.396Z,0
2017-03-19T03:21:15.910Z,0
2017-03-19T03:21:56.416Z,0
2017-03-19T03:22:36.898Z,0
2017-03-19T03:23:17.395Z,0
2017-03-19T03:23:57.884Z,0
2017-03-19T03:24:38.342Z,0
2017-03-19T03:25:18.885Z,0
2017-03-19T03:25:59.352Z,0
2017-03-19T03:26:39.849Z,0
2017-03-19T03:27:20.354Z,0
2017-03-19T03:28:00.812Z,0
2017-03-19T03:28:41.327Z,0
2017-03-19T03:29:21.821Z,0
2017-03-19T03:30:02.296Z,0
2017-03-19T03:30:42.775Z,0
2017-03-19T03:31:23.245Z,0
2017-03-19T03:32:03.750Z,0
2017-03-19T03:32:44.210Z,0
2017-03-19T03:33:24.697Z,0
2017-03-19T03:34:05.168Z,0
2017-03-19T03:34:45.656Z,0
2017-03-19T03:35:26.152Z,0
2017-03-19T03:36:06.625Z,0
2017-03-19T03:36:47.101Z,0
2017-03-19T03:37:27.586Z,0
2017-03-19T03:38:08.099Z,0
2017-03-19T03:38:48.562Z,0
2017-03-19T03:39:29.061Z,0
2017-03-19T03:40:09.560Z,0
2017-03-19T03:40:50.053Z,0
2017-03-19T03:41:30.535Z,0
2017-03-19T03:42:11.055Z,0
2017-03-19T03:42:51.505Z,0
2017-03-19T03:43:31.997Z,0
2017-03-19T03:44:12.527Z,0
2017-03-19T03:44:52.960Z,0
2017-03-19T03:45:33.454Z,0
2017-03-19T03:46:13.932Z,0
2017-03-19T03:46:54.423Z,0
2017-03-19T03:47:34.861Z,0
2017-03-19T03:48:15.353Z,0
2017-03-19T03:48:55.843Z,0
2017-03-19T03:49:36.331Z,0
2017-03-19T03:50:16.816Z,0
2017-03-19T03:50:57.307Z,0
2017-03-19T03:51:37.774Z,0
2017-03-19T03:52:18.264Z,0
2017-03-19T03:52:58.733Z,0
2017-03-19T03:53:39.255Z,0
2017-03-19T03:54:19.723Z,0
2017-03-19T03:55:00.174Z,0
2017-03-19T03:55:40.633Z,0
2017-03-19T03:56:21.135Z,0
2017-03-19T03:57:01.589Z,0
2017-03-19T03:57:42.082Z,0
2017-03-19T03:58:22.591Z,0
2017-03-19T03:59:03.094Z,0
2017-03-19T03:59:43.602Z,0
2017-03-19T04:00:24.115Z,0
2017-03-19T04:01:04.539Z,0
2017-03-19T04:01:45.030Z,0
2017-03-19T04:02:25.503Z,0
2017-03-19T04:03:06.005Z,0
2017-03-19T04:03:46.504Z,0
2017-03-19T04:04:26.977Z,0
2017-03-19T04:05:07.461Z,0
2017-03-19T04:05:47.958Z,0
2017-03-19T04:06:28.461Z,0
2017-03-19T04:07:08.894Z,0
2017-03-19T04:07:49.429Z,0
2017-03-19T04:08:29.872Z,0
2017-03-19T04:09:10.361Z,0
2017-03-19T04:09:50.881Z,0
2017-03-19T04:10:31.373Z,0
2017-03-19T04:11:11.880Z,0
2017-03-19T04:11:52.374Z,0
2017-03-19T04:12:32.859Z,0
2017-03-19T04:13:13.349Z,0
2017-03-19T04:13:53.846Z,0
2017-03-19T04:14:34.345Z,0
2017-03-19T04:15:14.860Z,0
2017-03-19T04:15:55.319Z,0
2017-03-19T04:16:35.791Z,0
2017-03-19T04:17:16.318Z,0
2017-03-19T04:17:56.811Z,0
2017-03-19T04:18:37.276Z,0
2017-03-19T04:19:17.762Z,0
2017-03-19T04:19:58.230Z,0
2017-03-19T04:20:38.717Z,0
2017-03-19T04:21:19.203Z,0
2017-03-19T04:21:59.728Z,0
2017-03-19T04:22:40.213Z,0
2017-03-19T04:23:20.739Z,0
2017-03-19T04:24:01.190Z,0
2017-03-19T04:24:41.687Z,0
2017-03-19T04:25:22.189Z,0
2017-03-19T04:26:02.679Z,0
2017-03-19T04:26:43.182Z,0
2017-03-19T04:27:23.671Z,0
2017-03-19T04:28:04.156Z,0
2017-03-19T04:28:44.626Z,0
2017-03-19T04:29:25.146Z,0
2017-03-19T04:30:05.598Z,0
2017-03-19T04:30:46.228Z,0
2017-03-19T04:31:26.693Z,0
2017-03-19T04:32:07.191Z,0
2017-03-19T04:32:47.668Z,0
2017-03-19T04:33:28.159Z,0
2017-03-19T04:34:08.668Z,0
2017-03-19T04:34:49.145Z,0
2017-03-19T04:35:29.641Z,0
2017-03-19T04:36:10.146Z,0
2017-03-19T04:36:50.644Z,0
2017-03-19T04:37:31.218Z,0
2017-03-19T04:38:11.673Z,0
2017-03-19T04:38:52.172Z,0
2017-03-19T04:39:32.705Z,0
2017-03-19T04:40:13.195Z,0
2017-03-19T04:40:53.736Z,0
2017-03-19T04:41:34.172Z,0
2017-03-19T04:42:14.685Z,0
2017-03-19T04:42:55.124Z,0
2017-03-19T04:43:35.613Z,0
2017-03-19T04:44:16.102Z,0
2017-03-19T04:44:56.576Z,0
2017-03-19T04:45:37.056Z,0
2017-03-19T04:46:17.541Z,0
2017-03-19T04:46:58.055Z,0
2017-03-19T04:47:38.532Z,0
2017-03-19T04:48:19.058Z,0
2017-03-19T04:48:59.560Z,0
2017-03-19T04:49:40.056Z,0
2017-03-19T04:50:20.538Z,0
2017-03-19T04:51:01.076Z,0
2017-03-19T04:51:41.618Z,0
2017-03-19T04:52:22.150Z,0
2017-03-19T04:53:02.611Z,0
2017-03-19T04:53:43.090Z,0
2017-03-19T04:54:23.597Z,0
2017-03-19T04:55:04.072Z,0
2017-03-19T04:55:44.528Z,0
2017-03-19T04:56:25.003Z,0
2017-03-19T04:57:05.487Z,0
2017-03-19T04:57:45.964Z,0
2017-03-19T04:58:26.449Z,0
2017-03-19T04:59:06.914Z,0
2017-03-19T04:59:47.403Z,0
2017-03-19T05:00:27.894Z,0
2017-03-19T05:01:08.448Z,0
2017-03-19T05:01:48.938Z,0
2017-03-19T05:02:29.397Z,0
2017-03-19T05:03:09.890Z,0
2017-03-19T05:03:50.373Z,0
2017-03-19T05:04:31.017Z,0
2017-03-19T05:05:11.509Z,0
2017-03-19T05:05:51.956Z,0
2017-03-19T05:06:32.449Z,0
2017-03-19T05:07:12.945Z,0
2017-03-19T05:07:53.407Z,0
2017-03-19T05:08:33.966Z,0
2017-03-19T05:09:14.470Z,0
2017-03-19T05:09:54.970Z,0
2017-03-19T05:10:35.449Z,0
2017-03-19T05:11:15.943Z,0
2017-03-19T05:11:56.448Z,0
2017-03-19T05:12:36.921Z,0
2017-03-19T05:13:17.399Z,0
2017-03-19T05:13:57.896Z,0
2017-03-19T05:14:38.388Z,0
2017-03-19T05:15:18.848Z,0
2017-03-19T05:15:59.310Z,0
2017-03-19T05:16:39.785Z,0
2017-03-19T05:17:20.277Z,0
2017-03-19T05:18:00.778Z,0
2017-03-19T05:18:41.247Z,0
2017-03-19T05:19:21.726Z,0
2017-03-19T05:20:02.219Z,0
2017-03-19T05:20:42.694Z,0
2017-03-19T05:21:23.175Z,0
2017-03-19T05:22:06.368Z,0
2017-03-19T05:22:46.856Z,0
2017-03-19T05:23:27.330Z,0
2017-03-19T05:24:07.835Z,0
2017-03-19T05:24:48.292Z,0
2017-03-19T05:25:28.759Z,0
2017-03-19T05:26:09.251Z,0
2017-03-19T05:26:49.724Z,0
2017-03-19T05:27:30.200Z,0
2017-03-19T05:28:10.722Z,0
2017-03-19T05:28:51.199Z,0
2017-03-19T05:29:31.694Z,0
2017-03-19T05:30:12.228Z,0
2017-03-19T05:30:52.688Z,0
2017-03-19T05:31:33.202Z,0
2017-03-19T05:32:13.762Z,0
2017-03-19T05:32:54.340Z,0
2017-03-19T05:33:34.885Z,0
2017-03-19T05:34:15.349Z,0
2017-03-19T05:34:55.836Z,0
2017-03-19T05:35:36.335Z,0
2017-03-19T05:36:16.815Z,0
2017-03-19T05:36:57.297Z,0
2017-03-19T05:37:37.819Z,0
2017-03-19T05:38:18.324Z,5
2017-03-19T05:38:58.824Z,5
2017-03-19T05:39:39.293Z,5
2017-03-19T05:40:19.877Z,5
2017-03-19T05:41:00.384Z,5
2017-03-19T05:41:40.878Z,5
2017-03-19T05:42:21.371Z,5
2017-03-19T05:43:01.833Z,5
2017-03-19T05:43:42.318Z,5
2017-03-19T05:44:22.800Z,5
2017-03-19T05:45:03.277Z,5
2017-03-19T05:45:43.747Z,5
2017-03-19T05:46:24.272Z,5
2017-03-19T05:47:04.711Z,5
2017-03-19T05:47:45.252Z,5
2017-03-19T05:48:25.737Z,5
2017-03-19T05:49:06.264Z,5
2017-03-19T05:49:46.725Z,5
2017-03-19T05:50:27.224Z,5
2017-03-19T05:51:07.747Z,5
2017-03-19T05:51:48.251Z,5
2017-03-19T05:52:28.758Z,5
2017-03-19T05:53:09.240Z,10
2017-03-19T05:53:49.732Z,10
2017-03-19T05:54:30.294Z,10
2017-03-19T05:55:10.834Z,10
2017-03-19T05:55:51.304Z,10
2017-03-19T05:56:31.814Z,10
2017-03-19T05:57:12.260Z,10
2017-03-19T05:57:52.744Z,10
2017-03-19T05:58:33.207Z,10
2017-03-19T05:59:13.771Z,10
2017-03-19T05:59:54.256Z,10
2017-03-19T06:00:34.751Z,10
2017-03-19T06:01:15.238Z,10
2017-03-19T06:01:55.742Z,10
2017-03-19T06:02:36.229Z,15
2017-03-19T06:03:16.711Z,15
2017-03-19T06:03:57.180Z,15
2017-03-19T06:04:37.661Z,15
2017-03-19T06:05:18.140Z,15
2017-03-19T06:05:58.623Z,15
2017-03-19T06:06:39.203Z,15
2017-03-19T06:07:19.664Z,15
2017-03-19T06:08:00.199Z,15
2017-03-19T06:08:40.632Z,15
2017-03-19T06:09:21.141Z,15
2017-03-19T06:10:01.632Z,15
2017-03-19T06:10:42.108Z,15
2017-03-19T06:11:22.623Z,15
2017-03-19T06:12:03.130Z,15
2017-03-19T06:12:43.630Z,15
2017-03-19T06:13:24.198Z,15
2017-03-19T06:14:04.705Z,15
2017-03-19T06:14:45.190Z,20
2017-03-19T06:15:25.640Z,20
2017-03-19T06:16:06.242Z,20
2017-03-19T06:16:46.606Z,20
2017-03-19T06:17:27.098Z,20
2017-03-19T06:18:07.579Z,20
2017-03-19T06:18:48.064Z,20
2017-03-19T06:19:28.595Z,20
2017-03-19T06:20:09.048Z,20
2017-03-19T06:20:49.506Z,20
2017-03-19T06:21:30.013Z,20
2017-03-19T06:22:10.495Z,20
2017-03-19T06:22:50.977Z,20
2017-03-19T06:23:31.457Z,20
2017-03-19T06:24:11.943Z,20
2017-03-19T06:24:52.464Z,25
2017-03-19T06:25:32.940Z,25
2017-03-19T06:26:13.395Z,25
2017-03-19T06:26:53.911Z,25
2017-03-19T06:27:34.403Z,25
2017-03-19T06:28:14.878Z,25
2017-03-19T06:28:55.335Z,25
2017-03-19T06:29:35.842Z,25
2017-03-19T06:30:16.373Z,25
2017-03-19T06:30:56.838Z,25
2017-03-19T06:31:37.340Z,25
2017-03-19T06:32:17.848Z,30
2017-03-19T06:32:58.287Z,30
2017-03-19T06:33:38.785Z,30
2017-03-19T06:34:19.261Z,30
2017-03-19T06:34:59.753Z,30
2017-03-19T06:35:40.180Z,30
2017-03-19T06:36:20.789Z,35
2017-03-19T06:37:01.190Z,35
2017-03-19T06:37:41.708Z,35
2017-03-19T06:38:22.154Z,40
2017-03-19T06:39:02.647Z,40
2017-03-19T06:39:43.117Z,45
2017-03-19T06:40:23.634Z,45
2017-03-19T06:41:04.113Z,50
2017-03-19T06:41:44.591Z,55
2017-03-19T06:42:25.061Z,60
2017-03-19T06:43:05.591Z,60
2017-03-19T06:43:46.093Z,65
2017-03-19T06:44:26.589Z,60
2017-03-19T06:45:07.109Z,65
2017-03-19T06:45:47.598Z,65
2017-03-19T06:46:28.062Z,70
2017-03-19T06:47:08.555Z,70
2017-03-19T06:47:49.011Z,75
2017-03-19T06:48:29.513Z,75
2017-03-19T06:49:09.969Z,75
2017-03-19T06:49:50.511Z,75
2017-03-19T06:50:31.058Z,75
2017-03-19T06:51:11.531Z,75
2017-03-19T06:51:52.016Z,75
2017-03-19T06:52:32.506Z,70
2017-03-19T06:53:12.954Z,70
2017-03-19T06:53:53.450Z,65
2017-03-19T06:54:33.944Z,65
2017-03-19T06:55:14.412Z,65
2017-03-19T06:55:54.900Z,65
2017-03-19T06:56:35.395Z,65
2017-03-19T06:57:15.859Z,65
2017-03-19T06:57:56.388Z,65
2017-03-19T06:58:36.873Z,65
2017-03-19T06:59:17.362Z,65
2017-03-19T06:59:57.846Z,65
2017-03-19T07:00:38.307Z,65
2017-03-19T07:01:18.794Z,65
2017-03-19T07:01:59.266Z,65
2017-03-19T07:02:39.766Z,70
2017-03-19T07:03:20.232Z,70
2017-03-19T07:04:00.738Z,70
2017-03-19T07:04:41.313Z,70
2017-03-19T07:05:21.759Z,75
2017-03-19T07:06:02.306Z,75
2017-03-19T07:06:42.830Z,75
2017-03-19T07:07:23.294Z,75
2017-03-19T07:08:03.782Z,80
2017-03-19T07:08:44.308Z,80
2017-03-19T07:09:24.809Z,80
2017-03-19T07:10:05.278Z,80
2017-03-19T07:10:45.782Z,80
2017-03-19T07:11:26.343Z,80
2017-03-19T07:12:06.824Z,85
2017-03-19T07:12:47.276Z,85
2017-03-19T07:13:27.745Z,90
2017-03-19T07:14:08.280Z,90
2017-03-19T07:14:48.722Z,95
2017-03-19T07:15:29.217Z,100
2017-03-19T07:16:09.732Z,105
2017-03-19T07:16:50.229Z,110
2017-03-19T07:17:30.727Z,110
2017-03-19T07:18:11.198Z,110
2017-03-19T07:18:51.667Z,110
2017-03-19T07:19:32.163Z,110
2017-03-19T07:20:12.628Z,105
2017-03-19T07:20:53.128Z,105
2017-03-19T07:21:33.639Z,105
2017-03-19T07:22:14.146Z,105
2017-03-19T07:22:54.618Z,110
2017-03-19T07:23:35.147Z,110
2017-03-19T07:24:15.664Z,115
2017-03-19T07:24:56.113Z,115
2017-03-19T07:25:36.646Z,115
2017-03-19T07:26:17.103Z,115
2017-03-19T07:26:57.613Z,120
2017-03-19T07:27:38.063Z,120
2017-03-19T07:28:18.547Z,115
2017-03-19T07:28:59.135Z,115
2017-03-19T07:29:39.516Z,115
2017-03-19T07:30:20.018Z,110
2017-03-19T07:31:00.484Z,110
2017-03-19T07:31:40.998Z,110
2017-03-19T07:32:21.497Z,110
2017-03-19T07:33:01.976Z,105
2017-03-19T07:33:42.492Z,105
2017-03-19T07:34:22.948Z,100
2017-03-19T07:35:03.461Z,95
2017-03-19T07:35:43.936Z,95
2017-03-19T07:36:24.405Z,95
2017-03-19T07:37:04.905Z,90
2017-03-19T07:37:45.391Z,90
2017-03-19T07:38:25.832Z,90
2017-03-19T07:39:06.363Z,90
2017-03-19T07:39:46.839Z,90
2017-03-19T07:40:27.375Z,90
2017-03-19T07:41:07.899Z,95
2017-03-19T07:41:48.383Z,95
2017-03-19T07:42:28.926Z,100
2017-03-19T07:43:09.413Z,100
2017-03-19T07:43:49.876Z,100
2017-03-19T07:44:30.333Z,100
2017-03-19T07:45:10.856Z,95
2017-03-19T07:45:51.336Z,95
2017-03-19T07:46:31.829Z,90
2017-03-19T07:47:12.325Z,90
2017-03-19T07:47:52.820Z,90
2017-03-19T07:48:33.295Z,90
2017-03-19T07:49:13.784Z,90
2017-03-19T07:49:54.311Z,90
2017-03-19T07:50:34.787Z,90
2017-03-19T07:51:15.265Z,90
2017-03-19T07:51:55.746Z,85
2017-03-19T07:52:36.284Z,85
2017-03-19T07:53:16.763Z,90
2017-03-19T07:53:57.258Z,90
2017-03-19T07:54:37.742Z,90
2017-03-19T07:55:18.254Z,90
2017-03-19T07:55:58.723Z,90
2017-03-19T07:56:39.214Z,90
2017-03-19T07:57:19.706Z,90
2017-03-19T07:58:00.285Z,90
2017-03-19T07:58:40.752Z,90
2017-03-19T07:59:21.248Z,90
2017-03-19T08:00:01.721Z,90
2017-03-19T08:00:42.217Z,90
2017-03-19T08:01:22.704Z,90
2017-03-19T08:02:03.157Z,90
2017-03-19T08:02:43.693Z,85
2017-03-19T08:03:24.160Z,85
2017-03-19T08:04:04.646Z,85
2017-03-19T08:04:45.142Z,85
2017-03-19T08:05:25.603Z,80
2017-03-19T08:06:06.087Z,80
2017-03-19T08:06:46.593Z,80
2017-03-19T08:07:27.057Z,80
2017-03-19T08:08:07.546Z,80
2017-03-19T08:08:48.052Z,80
2017-03-19T08:09:28.512Z,80
2017-03-19T08:10:08.990Z,80
2017-03-19T08:10:49.451Z,80
2017-03-19T08:11:29.957Z,80
2017-03-19T08:12:10.453Z,85
2017-03-19T08:12:50.928Z,85
2017-03-19T08:13:31.437Z,85
2017-03-19T08:14:11.942Z,85
2017-03-19T08:14:52.441Z,85
2017-03-19T08:15:32.901Z,85
2017-03-19T08:16:13.414Z,85
2017-03-19T08:16:53.898Z,85
2017-03-19T08:17:34.417Z,85
2017-03-19T08:18:14.889Z,85
2017-03-19T08:18:55.366Z,85
2017-03-19T08:19:35.839Z,90
2017-03-19T08:20:16.313Z,90
2017-03-19T08:20:56.810Z,90
2017-03-19T08:21:37.291Z,90
2017-03-19T08:22:17.745Z,90
2017-03-19T08:22:58.254Z,85
2017-03-19T08:23:38.742Z,85
2017-03-19T08:24:19.272Z,85
2017-03-19T08:24:59.760Z,85
2017-03-19T08:25:40.350Z,80
2017-03-19T08:26:20.844Z,80
2017-03-19T08:27:01.338Z,80
2017-03-19T08:27:41.862Z,85
2017-03-19T08:28:22.336Z,80
2017-03-19T08:29:02.826Z,80
2017-03-19T08:29:43.304Z,80
2017-03-19T08:30:23.817Z,80
2017-03-19T08:31:04.269Z,80
2017-03-19T08:31:44.760Z,80
2017-03-19T08:32:25.277Z,80
2017-03-19T08:33:05.755Z,85
2017-03-19T08:33:46.269Z,85
2017-03-19T08:34:26.784Z,90
2017-03-19T08:35:07.274Z,90
2017-03-19T08:35:47.776Z,95
2017-03-19T08:36:28.279Z,95
2017-03-19T08:37:08.762Z,95
2017-03-19T08:37:49.277Z,95
2017-03-19T08:38:29.780Z,90
2017-03-19T08:39:10.285Z,90
2017-03-19T08:39:50.767Z,85
2017-03-19T08:40:31.302Z,80
2017-03-19T08:41:11.787Z,75
2017-03-19T08:43:45.440Z,80
2017-03-19T08:44:25.781Z,85
2017-03-19T08:45:06.302Z,90
2017-03-19T08:45:46.754Z,90
2017-03-19T08:46:27.210Z,90
2017-03-19T08:47:07.671Z,90
2017-03-19T08:47:48.147Z,90
2017-03-19T08:48:28.618Z,90
2017-03-19T08:49:09.163Z,90
2017-03-19T08:49:49.628Z,90
2017-03-19T08:50:30.096Z,90
2017-03-19T08:51:10.637Z,95
2017-03-19T08:51:51.106Z,100
2017-03-19T08:52:31.574Z,105
2017-03-19T08:53:12.055Z,100
2017-03-19T08:53:52.531Z,105
2017-03-19T08:54:33.053Z,110
2017-03-19T08:55:13.535Z,115
2017-03-19T08:55:54.014Z,115
2017-03-19T08:56:34.511Z,115
2017-03-19T08:57:14.983Z,110
2017-03-19T08:57:55.445Z,110
2017-03-19T08:58:35.927Z,105
2017-03-19T08:59:16.433Z,95
2017-03-19T08:59:56.923Z,95
2017-03-19T09:00:37.411Z,95
2017-03-19T09:01:17.916Z,95
2017-03-19T09:01:58.415Z,90
2017-03-19T09:02:38.874Z,95
2017-03-19T09:03:19.357Z,90
2017-03-19T09:03:59.845Z,105
2017-03-19T09:04:40.304Z,100
2017-03-19T09:05:20.803Z,105
2017-03-19T09:06:01.262Z,105
2017-03-19T09:06:41.764Z,110
2017-03-19T09:07:22.223Z,115
2017-03-19T09:08:02.725Z,115
2017-03-19T09:08:43.242Z,115
2017-03-19T09:09:23.722Z,130
2017-03-19T09:10:04.191Z,135
2017-03-19T09:10:44.707Z,135
2017-03-19T09:11:25.213Z,135
2017-03-19T09:12:05.676Z,145
2017-03-19T09:12:46.168Z,145
2017-03-19T09:13:26.628Z,150
2017-03-19T09:14:07.098Z,150
2017-03-19T09:14:47.604Z,150
2017-03-19T09:15:28.104Z,160
2017-03-19T09:16:08.595Z,160
2017-03-19T09:16:49.133Z,170
2017-03-19T09:17:29.628Z,150
2017-03-19T09:18:10.104Z,155
2017-03-19T09:18:50.592Z,165
2017-03-19T09:19:31.031Z,170
2017-03-19T09:20:11.502Z,180
2017-03-19T09:20:52.010Z,155
2017-03-19T09:21:32.441Z,165
2017-03-19T09:22:12.917Z,175
2017-03-19T09:22:53.400Z,170
2017-03-19T09:23:33.929Z,170
2017-03-19T09:24:14.351Z,160
2017-03-19T09:26:28.184Z,145
2017-03-19T09:27:08.647Z,150
2017-03-19T09:27:49.148Z,150
2017-03-19T09:28:29.610Z,155
2017-03-19T09:29:10.084Z,155
2017-03-19T09:29:50.676Z,145
2017-03-19T09:30:31.117Z,150
2017-03-19T09:31:11.600Z,160
2017-03-19T09:31:52.081Z,155
2017-03-19T09:32:32.569Z,150
2017-03-19T09:33:13.071Z,155
2017-03-19T09:35:51.861Z,150
2017-03-19T09:36:32.255Z,155
2017-03-19T09:37:13.505Z,155
2017-03-19T09:37:54.025Z,150
2017-03-19T09:38:34.528Z,150
2017-03-19T09:39:15.012Z,155
2017-03-19T09:39:55.517Z,155
2017-03-19T09:40:36.020Z,135
2017-03-19T09:41:16.582Z,150
2017-03-19T09:41:57.133Z,155
2017-03-19T09:42:37.623Z,140
2017-03-19T09:43:18.068Z,135
2017-03-19T09:43:58.567Z,125
2017-03-19T09:44:39.067Z,125
2017-03-19T09:45:19.531Z,120
2017-03-19T09:46:00.045Z,115
2017-03-19T09:46:40.508Z,105
2017-03-19T09:47:21.117Z,110
2017-03-19T09:48:01.604Z,110
2017-03-19T09:48:42.093Z,105
2017-03-19T09:49:22.571Z,105
2017-03-19T09:50:03.066Z,105
2017-03-19T09:50:43.560Z,100
2017-03-19T09:51:24.143Z,105
2017-03-19T09:52:04.648Z,110
2017-03-19T09:52:45.147Z,125
2017-03-19T09:53:25.618Z,150
2017-03-19T09:54:06.111Z,130
2017-03-19T09:54:46.635Z,125